Aeroporto :
LOGIN :

Iscrizione | Disclaimer

   EN    FR    IT 

 










Sommario :    VFR   VFR Marginale   IFR   IFR Intensivo   IFR Molto Intensivo
Visibilità : 
Base nubi : 
>= 8 km
>= 3000ft
5 / 8 km
1000 / 3000 ft
1500m / 5 km
500 / 1000 ft
800 / 1500m
200 / 500 ft
< 800m
< 200 ft
Simboli :   Temporali  Nebbia  Neve Forte  Precipitazioni Forti  Vento > 20 kt
SIGMETs :   Varie  Temporali  Ghiacco  Turbolenza  Onda orograficha  Ceneri Vulcaniche







- Altitudine del aeroporto : 239 ft
- Codice IATA : VRN


LIPX - Villafranca Int. Verona

ULTIMO METAR :
  • 121550Z 16002KT CAVOK 05/M03 Q1018

METARs OBSOLETI :
  • 121520Z VRB01KT CAVOK 07/M04 Q1018
  • 121450Z 24002KT CAVOK 08/M03 Q1018
  • 121420Z 16003KT 130V190 CAVOK 08/M03 Q1018
  • 121350Z 14004KT CAVOK 09/M05 Q1019
  • 121320Z 14003KT 110V180 CAVOK 09/M07 Q1019
  • 121250Z VRB02KT CAVOK 09/M07 Q1019

TAF TAF LIPX
Valido dal 12 a 15 ore il 13 a 00 ore UTC


121400Z 1215/1224 VRB05KT CAVOK
Nessun NOTAM noto per questo aeroporto.
1 SIGMET conosciuto per la FIR Milano (LIMM) :
 
Forte formazione di ghiaccio
LIMM SIGMET 2 VALID 121445/121700 LIIP
LIMM MILANO FIR SEV ICE OBS WI N4340 E01047 - N4440 E01044 - N4421 E01153 - N4336 E01218 - N4340 E01047 FL060/080 STNR NC=



MetMap, La meteo Aeronautica in un colpo d'occhio ! - Copyright ORBIFLY Dicembre 2007 - Disclaimer

ORBIFLY MET'MAP TEAM :

Programmazione e sviluppo : Alexandra Zaïnal
Concezione e sviluppo : Baudouin d'Aumeries
Co-Programmazione e sviluppo : Marc-Olivier Méhu
Supporto tecnico e logistico : Manuel Goepfert
Aiuto per la traduzione : Arnaldo La Scala

Contatto : metmap@orbifly.com




FONTI E CREDITI :

   NOAA